createdAt,value
2023-05-07T00:00:19.481Z,4.80
2023-05-07T00:02:46.825Z,4.10
2023-05-07T00:05:13.890Z,6.40
2023-05-07T00:07:41.200Z,6.90
2023-05-07T00:10:08.697Z,7.40
2023-05-07T00:12:35.495Z,8.20
2023-05-07T00:15:05.291Z,5.80
2023-05-07T00:17:32.947Z,4.10
2023-05-07T00:19:59.433Z,6.20
2023-05-07T00:22:25.966Z,5.20
2023-05-07T00:24:52.270Z,2.60
2023-05-07T00:27:18.568Z,6.80
2023-05-07T00:29:44.902Z,6.50
2023-05-07T00:32:11.309Z,5.90
2023-05-07T00:34:39.852Z,5.30
2023-05-07T00:37:09.871Z,6.60
2023-05-07T00:39:36.332Z,3.60
2023-05-07T00:42:03.265Z,3.50
2023-05-07T00:44:30.080Z,4.60
2023-05-07T00:46:57.462Z,5.80
2023-05-07T00:49:27.316Z,7.70
2023-05-07T00:51:53.853Z,4.90
2023-05-07T00:54:20.394Z,4.40
2023-05-07T00:56:46.820Z,5.10
2023-05-07T00:59:13.382Z,4.90
2023-05-07T01:01:39.984Z,4.70
2023-05-07T01:04:06.661Z,5.10
2023-05-07T01:06:33.885Z,7.40
2023-05-07T01:09:00.953Z,3.50
2023-05-07T01:11:27.342Z,5.60
2023-05-07T01:13:53.793Z,5.10
2023-05-07T01:16:21.925Z,4.00
2023-05-07T01:18:48.973Z,4.90
2023-05-07T01:21:16.028Z,3.40
2023-05-07T01:23:42.590Z,4.40
2023-05-07T01:26:09.235Z,5.40
2023-05-07T01:28:36.287Z,3.90
2023-05-07T01:31:03.999Z,5.50
2023-05-07T01:33:33.558Z,5.20
2023-05-07T01:36:02.581Z,7.40
2023-05-07T01:38:29.112Z,6.10
2023-05-07T01:40:56.040Z,4.60
2023-05-07T01:43:22.379Z,5.20
2023-05-07T01:45:49.496Z,4.70
2023-05-07T01:48:15.956Z,5.30
2023-05-07T01:50:43.282Z,3.30
2023-05-07T01:53:09.761Z,5.80
2023-05-07T01:55:37.308Z,5.50
2023-05-07T01:58:04.450Z,4.20
2023-05-07T02:00:31.680Z,6.80
2023-05-07T02:02:58.835Z,4.70
2023-05-07T02:05:31.745Z,4.70
2023-05-07T02:08:03.721Z,4.50
2023-05-07T02:10:31.791Z,5.50
2023-05-07T02:13:02.114Z,4.90
2023-05-07T02:15:28.941Z,3.90
2023-05-07T02:18:06.782Z,5.30
2023-05-07T02:20:33.451Z,3.20
2023-05-07T02:22:59.929Z,4.20
2023-05-07T02:25:26.909Z,6.90
2023-05-07T02:27:53.354Z,4.90
2023-05-07T02:30:21.690Z,5.40
2023-05-07T02:32:48.785Z,4.90
2023-05-07T02:35:15.230Z,6.40
2023-05-07T02:37:42.274Z,4.20
2023-05-07T02:40:09.806Z,4.60
2023-05-07T02:42:36.317Z,5.60
2023-05-07T02:45:03.085Z,3.80
2023-05-07T02:47:30.497Z,5.90
2023-05-07T02:49:57.297Z,5.20
2023-05-07T02:52:23.707Z,6.10
2023-05-07T02:54:50.189Z,5.10
2023-05-07T02:57:16.648Z,4.20
2023-05-07T02:59:43.339Z,5.10
2023-05-07T03:02:10.200Z,7.90
2023-05-07T03:04:36.670Z,4.80
2023-05-07T03:07:03.158Z,4.00
2023-05-07T03:09:29.707Z,4.60
2023-05-07T03:11:57.257Z,6.00
2023-05-07T03:14:23.774Z,4.90
2023-05-07T03:16:52.604Z,6.60
2023-05-07T03:19:18.965Z,6.10
2023-05-07T03:21:45.637Z,4.00
2023-05-07T03:24:12.066Z,7.90
2023-05-07T03:26:38.578Z,4.70
2023-05-07T03:29:04.927Z,5.40
2023-05-07T03:31:31.823Z,3.50
2023-05-07T03:33:58.520Z,6.30
2023-05-07T03:36:28.531Z,4.50
2023-05-07T03:38:55.472Z,8.40
2023-05-07T03:41:23.757Z,6.70
2023-05-07T03:43:50.104Z,6.70
2023-05-07T03:46:16.787Z,5.80
2023-05-07T03:48:43.646Z,4.50
2023-05-07T03:51:11.556Z,4.50
2023-05-07T03:53:38.378Z,4.70
2023-05-07T03:56:04.747Z,5.60
2023-05-07T03:58:34.249Z,3.20
2023-05-07T04:01:04.798Z,3.80
2023-05-07T04:03:31.742Z,4.00
2023-05-07T04:05:58.846Z,7.40
2023-05-07T04:08:26.234Z,5.50
2023-05-07T04:10:57.626Z,3.10
2023-05-07T04:13:25.622Z,2.90
2023-05-07T04:15:53.041Z,5.50
2023-05-07T04:18:20.466Z,5.20
2023-05-07T04:20:48.326Z,5.50
2023-05-07T04:23:15.210Z,5.20
2023-05-07T04:25:42.160Z,4.00
2023-05-07T04:28:12.920Z,5.50
2023-05-07T04:30:40.157Z,5.70
2023-05-07T04:33:07.463Z,9.20
2023-05-07T04:35:36.003Z,3.30
2023-05-07T04:38:04.059Z,5.00
2023-05-07T04:40:30.903Z,3.30
2023-05-07T04:42:57.730Z,5.50
2023-05-07T04:45:24.032Z,5.00
2023-05-07T04:47:50.716Z,4.90
2023-05-07T04:50:19.713Z,4.30
2023-05-07T04:52:46.973Z,4.80
2023-05-07T04:55:14.021Z,4.50
2023-05-07T04:57:41.872Z,5.10
2023-05-07T05:00:10.736Z,7.10
2023-05-07T05:02:38.465Z,6.00
2023-05-07T05:05:05.961Z,7.10
2023-05-07T05:07:32.736Z,4.30
2023-05-07T05:09:59.446Z,4.00
2023-05-07T05:12:26.044Z,4.90
2023-05-07T05:14:52.410Z,6.30
2023-05-07T05:17:19.213Z,3.60
2023-05-07T05:19:46.323Z,4.90
2023-05-07T05:22:12.746Z,6.00
2023-05-07T05:24:39.275Z,5.00
2023-05-07T05:27:05.837Z,3.50
2023-05-07T05:29:32.228Z,4.10
2023-05-07T05:31:58.562Z,5.40
2023-05-07T05:34:25.615Z,6.20
2023-05-07T05:36:52.892Z,6.70
2023-05-07T05:39:19.543Z,3.10
2023-05-07T05:41:46.258Z,6.90
2023-05-07T05:44:12.897Z,5.40
2023-05-07T05:46:41.515Z,5.90
2023-05-07T05:49:08.040Z,7.10
2023-05-07T05:51:34.659Z,5.80
2023-05-07T05:54:01.505Z,7.60
2023-05-07T05:56:27.835Z,6.90
2023-05-07T05:58:54.120Z,6.40
2023-05-07T06:01:21.610Z,4.80
2023-05-07T06:03:48.662Z,6.70
2023-05-07T06:06:15.212Z,7.90
2023-05-07T06:08:42.496Z,3.90
2023-05-07T06:11:09.408Z,4.40
2023-05-07T06:13:36.965Z,7.20
2023-05-07T06:16:03.744Z,6.50
2023-05-07T06:18:30.573Z,6.50
2023-05-07T06:20:56.940Z,8.00
2023-05-07T06:23:26.260Z,6.10
2023-05-07T06:25:52.677Z,3.80
2023-05-07T06:28:21.212Z,4.90
2023-05-07T06:30:49.269Z,4.40
2023-05-07T06:33:16.560Z,6.60
2023-05-07T06:35:43.241Z,3.90
2023-05-07T06:38:09.899Z,6.00
2023-05-07T06:40:36.772Z,5.10
2023-05-07T06:43:03.040Z,4.30
2023-05-07T06:45:47.556Z,4.90
2023-05-07T06:48:14.065Z,5.70
2023-05-07T06:50:49.136Z,6.20
2023-05-07T06:53:15.639Z,6.80
2023-05-07T06:55:42.555Z,5.50
2023-05-07T06:58:09.693Z,4.20
2023-05-07T07:00:37.179Z,4.20
2023-05-07T07:03:03.568Z,6.90
2023-05-07T07:05:31.544Z,5.30
2023-05-07T07:07:58.128Z,5.30
2023-05-07T07:10:24.551Z,4.80
2023-05-07T07:12:52.862Z,5.40
2023-05-07T07:15:21.091Z,5.20
2023-05-07T07:17:48.414Z,4.80
2023-05-07T07:20:15.014Z,7.80
2023-05-07T07:22:42.924Z,5.10
2023-05-07T07:25:10.804Z,5.60
2023-05-07T07:27:38.104Z,7.70
2023-05-07T07:30:05.452Z,7.00
2023-05-07T07:32:33.906Z,12.30
2023-05-07T07:35:00.300Z,14.50
2023-05-07T07:37:27.015Z,15.60
2023-05-07T07:39:53.787Z,10.60
2023-05-07T07:42:20.304Z,9.60
2023-05-07T07:44:46.646Z,8.20
2023-05-07T07:47:13.463Z,6.20
2023-05-07T07:49:40.291Z,6.30
2023-05-07T07:52:06.892Z,4.80
2023-05-07T07:54:34.837Z,7.10
2023-05-07T07:57:02.005Z,9.20
2023-05-07T07:59:28.607Z,7.20
2023-05-07T08:01:57.224Z,7.70
2023-05-07T08:04:24.736Z,11.50
2023-05-07T08:06:52.170Z,10.10
2023-05-07T08:09:19.217Z,9.30
2023-05-07T08:11:46.371Z,7.90
2023-05-07T08:14:12.772Z,6.80
2023-05-07T08:16:39.486Z,9.10
2023-05-07T08:19:07.402Z,9.80
2023-05-07T08:21:34.886Z,10.70
2023-05-07T08:24:01.641Z,7.40
2023-05-07T08:26:29.273Z,6.00
2023-05-07T08:28:55.594Z,6.90
2023-05-07T08:31:21.914Z,13.60
2023-05-07T08:33:48.325Z,10.50
2023-05-07T08:36:14.675Z,12.50
2023-05-07T08:38:43.181Z,8.50
2023-05-07T08:41:11.040Z,13.10
2023-05-07T08:43:38.320Z,10.70
2023-05-07T08:46:06.154Z,13.30
2023-05-07T08:48:35.424Z,13.20
2023-05-07T08:51:09.248Z,15.20
2023-05-07T08:53:36.375Z,14.10
2023-05-07T08:56:03.013Z,11.20
2023-05-07T08:58:29.776Z,9.80
2023-05-07T09:00:56.437Z,7.60
2023-05-07T09:03:23.391Z,9.80
2023-05-07T09:05:51.154Z,7.50
2023-05-07T09:08:18.095Z,7.80
2023-05-07T09:10:46.489Z,5.00
2023-05-07T09:13:15.018Z,5.30
2023-05-07T09:15:41.591Z,5.60
2023-05-07T09:18:08.291Z,8.40
2023-05-07T09:20:37.191Z,9.20
2023-05-07T09:23:04.053Z,5.20
2023-05-07T09:25:32.254Z,5.80
2023-05-07T09:28:00.865Z,6.00
2023-05-07T09:30:32.192Z,4.90
2023-05-07T09:32:59.707Z,6.00
2023-05-07T09:35:29.674Z,6.80
2023-05-07T09:38:02.325Z,4.20
2023-05-07T09:40:31.345Z,5.60
2023-05-07T09:43:11.672Z,4.50
2023-05-07T09:45:39.851Z,6.00
2023-05-07T09:48:07.500Z,8.30
2023-05-07T09:50:41.903Z,7.40
2023-05-07T09:53:08.403Z,6.30
2023-05-07T09:55:35.236Z,6.90
2023-05-07T09:58:03.053Z,4.90
2023-05-07T10:00:30.413Z,6.50
2023-05-07T10:03:00.714Z,5.40
2023-05-07T10:05:37.181Z,6.00
2023-05-07T10:08:04.937Z,6.20
2023-05-07T10:10:33.872Z,5.40
2023-05-07T10:13:02.384Z,5.30
2023-05-07T10:15:32.239Z,6.90
2023-05-07T10:17:59.444Z,3.90
2023-05-07T10:20:26.218Z,5.20
2023-05-07T10:22:54.084Z,5.70
2023-05-07T10:25:31.030Z,4.00
2023-05-07T10:28:04.284Z,4.10
2023-05-07T10:30:49.963Z,5.00
2023-05-07T10:33:17.661Z,5.90
2023-05-07T10:35:45.472Z,6.20
2023-05-07T10:38:12.549Z,6.90
2023-05-07T10:40:40.357Z,5.90
2023-05-07T10:43:09.501Z,6.40
2023-05-07T10:46:10.004Z,5.90
2023-05-07T10:49:03.348Z,7.50
2023-05-07T10:51:36.676Z,6.40
2023-05-07T10:54:24.466Z,6.40
2023-05-07T10:56:58.571Z,5.90
2023-05-07T10:59:31.901Z,6.80
2023-05-07T11:02:06.699Z,5.20
2023-05-07T11:04:42.074Z,4.10
2023-05-07T11:07:27.183Z,6.30
2023-05-07T11:09:58.620Z,6.00
2023-05-07T11:12:37.344Z,6.40
2023-05-07T11:15:09.573Z,4.70
2023-05-07T11:17:56.652Z,5.70
2023-05-07T11:20:56.394Z,6.20
2023-05-07T11:23:52.008Z,5.60
2023-05-07T11:26:23.459Z,4.70
2023-05-07T11:28:50.862Z,4.60
2023-05-07T11:33:54.698Z,6.20
2023-05-07T11:36:23.575Z,5.70
2023-05-07T11:38:51.639Z,6.80
2023-05-07T11:41:19.694Z,7.30
2023-05-07T11:43:59.686Z,5.30
2023-05-07T11:46:27.974Z,3.90
2023-05-07T11:48:56.982Z,7.50
2023-05-07T11:51:25.250Z,5.70
2023-05-07T11:53:53.273Z,5.20
2023-05-07T11:56:20.440Z,6.00
2023-05-07T11:58:48.345Z,7.80
2023-05-07T12:01:16.824Z,5.90
2023-05-07T12:03:45.918Z,6.80
2023-05-07T12:06:13.899Z,4.80
2023-05-07T12:08:42.236Z,9.60
2023-05-07T12:11:12.462Z,5.80
2023-05-07T12:13:39.659Z,6.10
2023-05-07T12:16:07.184Z,7.00
2023-05-07T12:18:35.209Z,5.70
2023-05-07T12:21:02.369Z,6.10
2023-05-07T12:23:29.862Z,8.30
2023-05-07T12:25:56.888Z,6.10
2023-05-07T12:28:24.081Z,6.60
2023-05-07T12:30:51.920Z,5.20
2023-05-07T12:33:20.357Z,6.80
2023-05-07T12:35:47.293Z,8.50
2023-05-07T12:38:15.332Z,14.40
2023-05-07T12:40:44.038Z,7.10
2023-05-07T12:43:37.383Z,7.40
2023-05-07T12:46:06.500Z,10.50
2023-05-07T12:48:33.695Z,6.60
2023-05-07T12:51:01.742Z,9.40
2023-05-07T12:53:29.305Z,8.50
2023-05-07T12:55:57.286Z,7.40
2023-05-07T12:58:37.014Z,11.90
2023-05-07T13:01:08.010Z,7.10
2023-05-07T13:03:36.437Z,6.70
2023-05-07T13:06:07.868Z,8.60
2023-05-07T13:08:41.664Z,6.50
2023-05-07T13:11:11.709Z,7.50
2023-05-07T13:13:39.930Z,6.40
2023-05-07T13:16:08.251Z,7.00
2023-05-07T13:18:36.038Z,8.20
2023-05-07T13:21:03.095Z,28.70
2023-05-07T13:23:31.033Z,128.60
2023-05-07T13:25:58.151Z,60.40
2023-05-07T13:28:25.776Z,90.10
2023-05-07T13:30:53.604Z,31.00
2023-05-07T13:33:21.511Z,14.30
2023-05-07T13:35:48.906Z,14.70
2023-05-07T13:38:17.241Z,19.10
2023-05-07T13:40:44.331Z,9.50
2023-05-07T13:43:11.812Z,13.20
2023-05-07T13:45:38.942Z,17.70
2023-05-07T13:48:06.264Z,8.90
2023-05-07T13:50:33.346Z,16.20
2023-05-07T13:53:00.373Z,15.40
2023-05-07T13:55:29.205Z,9.00
2023-05-07T13:58:00.437Z,10.30
2023-05-07T14:00:28.089Z,9.90
2023-05-07T14:02:56.127Z,8.20
2023-05-07T14:05:26.143Z,10.40
2023-05-07T14:07:53.290Z,7.00
2023-05-07T14:10:20.644Z,7.90
2023-05-07T14:12:47.992Z,8.50
2023-05-07T14:15:15.716Z,12.20
2023-05-07T14:17:43.724Z,14.00
2023-05-07T14:20:11.810Z,17.10
2023-05-07T14:22:39.013Z,16.00
2023-05-07T14:25:07.456Z,12.60
2023-05-07T14:27:34.863Z,14.10
2023-05-07T14:30:01.868Z,47.40
2023-05-07T14:32:29.097Z,58.20
2023-05-07T14:34:56.205Z,15.90
2023-05-07T14:37:24.212Z,55.10
2023-05-07T14:39:51.250Z,14.30
2023-05-07T14:42:18.824Z,23.70
2023-05-07T14:44:47.645Z,15.60
2023-05-07T14:47:16.220Z,16.80
2023-05-07T14:49:44.597Z,9.30
2023-05-07T14:52:11.683Z,14.00
2023-05-07T14:54:39.218Z,11.50
2023-05-07T14:57:06.942Z,48.00
2023-05-07T14:59:33.922Z,19.40
2023-05-07T15:02:02.484Z,20.90
2023-05-07T15:04:31.080Z,15.50
2023-05-07T15:06:58.018Z,9.20
2023-05-07T15:09:25.121Z,11.00
2023-05-07T15:11:52.306Z,12.90
2023-05-07T15:14:19.416Z,11.20
2023-05-07T15:16:46.828Z,10.60
2023-05-07T15:19:15.915Z,11.10
2023-05-07T15:21:43.002Z,20.20
2023-05-07T15:24:10.370Z,15.80
2023-05-07T15:26:37.754Z,11.10
2023-05-07T15:29:09.118Z,10.40
2023-05-07T15:31:38.601Z,9.50
2023-05-07T15:34:05.691Z,14.30
2023-05-07T15:36:32.602Z,10.40
2023-05-07T15:38:59.553Z,10.70
2023-05-07T15:41:26.590Z,15.70
2023-05-07T15:43:53.611Z,18.60
2023-05-07T15:46:21.722Z,11.40
2023-05-07T15:48:48.901Z,15.80
2023-05-07T15:51:16.497Z,16.70
2023-05-07T15:53:43.466Z,109.70
2023-05-07T15:56:10.465Z,21.00
2023-05-07T15:58:37.488Z,17.80
2023-05-07T16:01:05.060Z,59.90
2023-05-07T16:03:32.699Z,31.10
2023-05-07T16:06:02.962Z,23.00
2023-05-07T16:08:30.258Z,81.50
2023-05-07T16:10:57.635Z,92.50
2023-05-07T16:13:25.361Z,28.90
2023-05-07T16:15:59.504Z,29.40
2023-05-07T16:18:26.797Z,78.10
2023-05-07T16:20:54.637Z,41.60
2023-05-07T16:23:22.396Z,14.60
2023-05-07T16:25:49.824Z,19.50
2023-05-07T16:28:16.991Z,21.00
2023-05-07T16:30:44.149Z,130.90
2023-05-07T16:33:11.548Z,170.60
2023-05-07T16:35:38.474Z,35.40
2023-05-07T16:38:10.285Z,42.30
2023-05-07T16:40:39.089Z,40.70
2023-05-07T16:43:06.346Z,51.10
2023-05-07T16:45:33.381Z,25.70
2023-05-07T16:48:00.840Z,55.20
2023-05-07T16:50:28.318Z,71.50
2023-05-07T16:52:55.301Z,21.70
2023-05-07T16:55:22.300Z,60.70
2023-05-07T16:57:49.206Z,29.10
2023-05-07T17:00:16.950Z,35.80
2023-05-07T17:02:45.816Z,22.00
2023-05-07T17:05:13.311Z,14.90
2023-05-07T17:07:40.646Z,12.00
2023-05-07T17:10:08.418Z,9.90
2023-05-07T17:12:37.548Z,12.60
2023-05-07T17:15:05.120Z,18.20
2023-05-07T17:17:33.118Z,8.80
2023-05-07T17:20:00.478Z,10.10
2023-05-07T17:22:27.639Z,6.90
2023-05-07T17:24:54.607Z,7.70
2023-05-07T17:27:21.550Z,7.90
2023-05-07T17:29:48.648Z,5.60
2023-05-07T17:32:16.484Z,4.40
2023-05-07T17:34:43.470Z,4.90
2023-05-07T17:37:10.426Z,3.70
2023-05-07T17:39:37.516Z,6.20
2023-05-07T17:42:05.112Z,5.30
2023-05-07T17:44:33.818Z,5.70
2023-05-07T17:47:01.086Z,15.50
2023-05-07T17:49:28.082Z,11.10
2023-05-07T17:51:55.840Z,6.20
2023-05-07T17:54:27.267Z,3.80
2023-05-07T17:56:54.390Z,11.40
2023-05-07T17:59:21.476Z,5.30
2023-05-07T18:01:48.628Z,6.40
2023-05-07T18:04:15.635Z,6.80
2023-05-07T18:06:43.023Z,4.80
2023-05-07T18:09:10.462Z,8.30
2023-05-07T18:11:37.958Z,6.00
2023-05-07T18:14:05.490Z,10.10
2023-05-07T18:16:33.191Z,6.50
2023-05-07T18:19:00.289Z,6.90
2023-05-07T18:21:27.307Z,5.60
2023-05-07T18:23:54.305Z,6.30
2023-05-07T18:26:21.515Z,5.50
2023-05-07T18:28:48.557Z,5.90
2023-05-07T18:31:15.673Z,4.90
2023-05-07T18:33:42.874Z,5.00
2023-05-07T18:36:09.819Z,5.00
2023-05-07T18:38:37.832Z,14.80
2023-05-07T18:41:05.553Z,8.90
2023-05-07T18:43:33.974Z,8.30
2023-05-07T18:46:01.254Z,9.20
2023-05-07T18:48:28.402Z,8.90
2023-05-07T18:50:55.687Z,5.20
2023-05-07T18:53:22.943Z,5.10
2023-05-07T18:55:50.940Z,5.40
2023-05-07T18:58:20.214Z,6.30
2023-05-07T19:00:48.165Z,6.80
2023-05-07T19:03:16.634Z,6.30
2023-05-07T19:05:44.046Z,4.30
2023-05-07T19:08:11.413Z,4.30
2023-05-07T19:10:39.334Z,5.60
2023-05-07T19:13:06.868Z,6.00
2023-05-07T19:15:34.238Z,7.40
2023-05-07T19:18:01.486Z,5.70
2023-05-07T19:20:29.175Z,6.90
2023-05-07T19:22:56.587Z,4.30
2023-05-07T19:25:23.787Z,6.40
2023-05-07T19:27:52.709Z,4.90
2023-05-07T19:30:19.788Z,8.20
2023-05-07T19:32:47.017Z,4.80
2023-05-07T19:35:14.280Z,6.50
2023-05-07T19:37:41.837Z,5.10
2023-05-07T19:40:09.567Z,4.50
2023-05-07T19:42:36.759Z,5.00
2023-05-07T19:45:05.019Z,5.40
2023-05-07T19:47:32.225Z,5.60
2023-05-07T19:49:59.315Z,5.20
2023-05-07T19:52:26.639Z,4.40
2023-05-07T19:54:53.616Z,6.70
2023-05-07T19:57:20.832Z,6.00
2023-05-07T19:59:47.850Z,5.30
2023-05-07T20:02:15.671Z,7.00
2023-05-07T20:04:43.114Z,4.70
2023-05-07T20:07:10.153Z,5.10
2023-05-07T20:09:37.290Z,4.50
2023-05-07T20:12:04.581Z,3.20
2023-05-07T20:14:32.753Z,3.80
2023-05-07T20:16:59.904Z,3.60
2023-05-07T20:19:26.942Z,3.90
2023-05-07T20:21:54.000Z,5.70
2023-05-07T20:24:21.204Z,6.30
2023-05-07T20:26:48.111Z,4.50
2023-05-07T20:29:15.144Z,4.60
2023-05-07T20:31:42.550Z,3.80
2023-05-07T20:34:09.589Z,4.90
2023-05-07T20:36:37.921Z,4.10
2023-05-07T20:39:04.919Z,3.80
2023-05-07T20:41:32.369Z,4.90
2023-05-07T20:44:00.547Z,3.50
2023-05-07T20:46:27.791Z,3.60
2023-05-07T20:48:55.170Z,2.90
2023-05-07T20:51:22.161Z,3.60
2023-05-07T20:53:49.255Z,4.10
2023-05-07T20:56:16.380Z,3.70
2023-05-07T20:58:43.343Z,5.90
2023-05-07T21:01:10.504Z,3.40
2023-05-07T21:03:37.670Z,3.50
2023-05-07T21:06:04.681Z,3.90
2023-05-07T21:08:32.250Z,3.40
2023-05-07T21:10:59.457Z,3.70
2023-05-07T21:13:27.028Z,5.20
2023-05-07T21:15:54.051Z,5.40
2023-05-07T21:18:21.335Z,3.30
2023-05-07T21:20:48.316Z,3.80
2023-05-07T21:23:15.660Z,5.90
2023-05-07T21:25:47.142Z,4.80
2023-05-07T21:28:14.621Z,5.00
2023-05-07T21:30:41.722Z,5.20
2023-05-07T21:33:09.071Z,4.80
2023-05-07T21:35:36.415Z,3.40
2023-05-07T21:38:03.551Z,3.90
2023-05-07T21:40:30.773Z,4.30
2023-05-07T21:42:58.926Z,4.00
2023-05-07T21:45:26.032Z,5.30
2023-05-07T21:47:53.238Z,5.20
2023-05-07T21:50:20.694Z,5.80
2023-05-07T21:52:48.312Z,5.70
2023-05-07T21:55:15.333Z,3.90
2023-05-07T21:57:45.799Z,5.70
2023-05-07T22:00:19.102Z,6.50
2023-05-07T22:02:46.535Z,5.00
2023-05-07T22:05:13.635Z,4.90
2023-05-07T22:07:40.743Z,5.30
2023-05-07T22:10:08.539Z,5.30
2023-05-07T22:12:35.764Z,5.20
2023-05-07T22:15:03.003Z,6.60
2023-05-07T22:17:30.383Z,6.10
2023-05-07T22:19:57.424Z,5.90
2023-05-07T22:22:24.574Z,7.30
2023-05-07T22:24:51.846Z,6.20
2023-05-07T22:27:18.876Z,3.90
2023-05-07T22:29:47.063Z,4.50
2023-05-07T22:32:14.303Z,5.30
2023-05-07T22:34:41.475Z,5.10
2023-05-07T22:37:08.420Z,5.10
2023-05-07T22:39:35.743Z,5.30
2023-05-07T22:42:02.742Z,5.30
2023-05-07T22:44:29.936Z,4.00
2023-05-07T22:46:57.279Z,7.10
2023-05-07T22:49:24.309Z,10.60
2023-05-07T22:51:51.311Z,9.40
2023-05-07T22:54:18.295Z,5.90
2023-05-07T22:56:45.345Z,8.10
2023-05-07T22:59:13.449Z,5.50
2023-05-07T23:01:40.644Z,5.30
2023-05-07T23:04:07.727Z,6.70
2023-05-07T23:06:35.846Z,6.80
2023-05-07T23:09:02.828Z,6.40
2023-05-07T23:11:30.113Z,8.10
2023-05-07T23:13:57.112Z,4.70
2023-05-07T23:16:24.207Z,6.10
2023-05-07T23:18:51.638Z,5.10
2023-05-07T23:21:18.642Z,5.80
2023-05-07T23:23:45.579Z,6.80
2023-05-07T23:26:12.677Z,4.80
2023-05-07T23:28:39.819Z,6.80
2023-05-07T23:31:13.097Z,7.70
2023-05-07T23:33:40.309Z,6.70
2023-05-07T23:36:07.423Z,6.30
2023-05-07T23:38:34.713Z,4.40
2023-05-07T23:41:01.703Z,5.40
2023-05-07T23:43:28.842Z,4.90
2023-05-07T23:45:56.099Z,4.70
2023-05-07T23:48:23.619Z,4.80
2023-05-07T23:50:50.660Z,5.50
2023-05-07T23:53:17.989Z,7.00
2023-05-07T23:55:45.148Z,3.20
2023-05-07T23:58:12.566Z,4.20
